createdAt,value
2023-01-20T00:00:18.197Z,99286.44
2023-01-20T00:03:06.941Z,99290.13
2023-01-20T00:05:59.193Z,99292.19
2023-01-20T00:08:47.984Z,99281.16
2023-01-20T00:11:30.181Z,99279.50
2023-01-20T00:14:18.982Z,99278.50
2023-01-20T00:17:07.927Z,99275.97
2023-01-20T00:19:50.042Z,99273.13
2023-01-20T00:22:38.874Z,99272.38
2023-01-20T00:25:22.587Z,99266.31
2023-01-20T00:28:11.972Z,99269.09
2023-01-20T00:31:00.278Z,99269.78
2023-01-20T00:33:41.938Z,99265.09
2023-01-20T00:36:41.927Z,99265.31
2023-01-20T00:39:24.167Z,99261.75
2023-01-20T00:42:12.936Z,99258.22
2023-01-20T00:45:02.215Z,99250.69
2023-01-20T00:47:44.236Z,99253.72
2023-01-20T00:50:33.343Z,99256.31
2023-01-20T00:53:15.924Z,99254.22
2023-01-20T00:56:04.952Z,99259.84
2023-01-20T00:58:50.229Z,99265.34
2023-01-20T01:01:38.993Z,99260.69
2023-01-20T01:04:21.170Z,99263.53
2023-01-20T01:07:09.924Z,99261.03
2023-01-20T01:09:52.763Z,99255.66
2023-01-20T01:12:41.933Z,99268.41
2023-01-20T01:15:24.199Z,99275.06
2023-01-20T01:18:12.939Z,99273.06
2023-01-20T01:20:55.256Z,99264.22
2023-01-20T01:23:43.941Z,99271.91
2023-01-20T01:26:26.199Z,99283.44
2023-01-20T01:29:14.975Z,99290.13
2023-01-20T01:31:57.230Z,99295.88
2023-01-20T01:34:45.855Z,99295.97
2023-01-20T01:37:28.194Z,99304.47
2023-01-20T01:40:17.859Z,99311.59
2023-01-20T01:43:00.306Z,99309.56
2023-01-20T01:45:49.012Z,99309.81
2023-01-20T01:48:53.893Z,99308.94
2023-01-20T01:51:42.608Z,99300.53
2023-01-20T01:54:42.303Z,99303.91
2023-01-20T01:57:37.809Z,99310.69
2023-01-20T02:00:26.861Z,99306.47
2023-01-20T02:03:16.002Z,99297.34
2023-01-20T02:06:05.129Z,99301.59
2023-01-20T02:08:47.777Z,99300.44
2023-01-20T02:11:39.191Z,99297.88
2023-01-20T02:14:20.952Z,99302.22
2023-01-20T02:17:23.425Z,99301.66
2023-01-20T02:20:17.013Z,99295.59
2023-01-20T02:23:17.250Z,99313.09
2023-01-20T02:26:25.002Z,99327.31
2023-01-20T02:29:41.224Z,99333.72
2023-01-20T02:32:27.812Z,99343.34
2023-01-20T02:35:28.911Z,99353.31
2023-01-20T02:38:25.945Z,99363.59
2023-01-20T02:41:24.885Z,99369.78
2023-01-20T02:44:32.829Z,99367.56
2023-01-20T02:47:33.046Z,99370.28
2023-01-20T02:50:49.046Z,99384.03
2023-01-20T02:53:56.194Z,99395.88
2023-01-20T02:56:39.818Z,99392.41
2023-01-20T02:59:34.230Z,99399.66
2023-01-20T03:02:27.819Z,99395.66
2023-01-20T03:05:16.698Z,99405.78
2023-01-20T03:08:08.754Z,99397.47
2023-01-20T03:10:54.415Z,99397.59
2023-01-20T03:14:23.913Z,99411.31
2023-01-20T03:17:12.854Z,99404.91
2023-01-20T03:19:55.168Z,99400.56
2023-01-20T03:22:43.804Z,99399.03
2023-01-20T03:25:28.150Z,99395.53
2023-01-20T03:28:16.781Z,99401.53
2023-01-20T03:31:01.266Z,99400.22
2023-01-20T03:33:50.867Z,99412.94
2023-01-20T03:36:42.918Z,99423.03
2023-01-20T03:39:39.871Z,99428.94
2023-01-20T03:42:39.230Z,99429.75
2023-01-20T03:45:53.877Z,99443.28
2023-01-20T03:49:04.889Z,99447.78
2023-01-20T03:52:09.178Z,99452.63
2023-01-20T03:55:05.940Z,99448.09
2023-01-20T03:58:07.315Z,99461.38
2023-01-20T04:00:53.917Z,99461.00
2023-01-20T04:03:48.166Z,99462.47
2023-01-20T04:06:33.870Z,99465.34
2023-01-20T04:09:32.355Z,99461.34
2023-01-20T04:12:14.803Z,99473.03
2023-01-20T04:15:03.755Z,99472.28
2023-01-20T04:17:53.872Z,99486.09
2023-01-20T04:20:36.028Z,99489.84
2023-01-20T04:23:40.461Z,99489.94
2023-01-20T04:26:24.915Z,99499.63
2023-01-20T04:29:15.784Z,99503.09
2023-01-20T04:32:08.865Z,99513.50
2023-01-20T04:34:57.890Z,99508.00
2023-01-20T04:37:40.054Z,99510.69
2023-01-20T04:40:28.868Z,99510.25
2023-01-20T04:43:19.520Z,99517.84
2023-01-20T04:46:03.058Z,99522.38
2023-01-20T04:48:53.220Z,99522.38
2023-01-20T04:51:35.883Z,99526.22
2023-01-20T04:54:24.787Z,99529.31
2023-01-20T04:57:07.335Z,99533.06
2023-01-20T04:59:55.736Z,99539.25
2023-01-20T05:02:38.256Z,99535.81
2023-01-20T05:05:27.241Z,99547.00
2023-01-20T05:08:09.438Z,99545.31
2023-01-20T05:10:57.927Z,99544.66
2023-01-20T05:13:40.355Z,99551.63
2023-01-20T05:16:32.852Z,99546.44
2023-01-20T05:19:15.139Z,99556.31
2023-01-20T05:22:03.869Z,99554.16
2023-01-20T05:24:46.331Z,99558.00
2023-01-20T05:27:34.809Z,99547.19
2023-01-20T05:30:18.183Z,99550.41
2023-01-20T05:33:06.819Z,99549.31
2023-01-20T05:35:49.345Z,99536.28
2023-01-20T05:38:37.913Z,99546.38
2023-01-20T05:41:21.120Z,99542.69
2023-01-20T05:44:09.933Z,99536.44
2023-01-20T05:46:52.225Z,99534.69
2023-01-20T05:49:40.878Z,99530.31
2023-01-20T05:52:23.309Z,99524.56
2023-01-20T05:55:12.997Z,99523.19
2023-01-20T05:58:07.749Z,99521.53
2023-01-20T06:00:56.799Z,99521.41
2023-01-20T06:03:39.144Z,99527.53
2023-01-20T06:06:27.767Z,99530.41
2023-01-20T06:09:12.031Z,99511.00
2023-01-20T06:12:00.868Z,99520.28
2023-01-20T06:14:43.188Z,99523.53
2023-01-20T06:17:31.955Z,99518.81
2023-01-20T06:20:14.201Z,99516.50
2023-01-20T06:23:03.996Z,99514.88
2023-01-20T06:25:46.137Z,99518.13
2023-01-20T06:28:34.842Z,99510.16
2023-01-20T06:31:20.440Z,99509.88
2023-01-20T06:34:09.913Z,99508.22
2023-01-20T06:36:52.162Z,99503.09
2023-01-20T06:39:40.861Z,99494.47
2023-01-20T06:42:23.433Z,99484.53
2023-01-20T06:45:11.863Z,99483.72
2023-01-20T06:47:58.125Z,99478.41
2023-01-20T06:50:46.819Z,99479.41
2023-01-20T06:53:29.127Z,99477.25
2023-01-20T06:56:19.896Z,99476.88
2023-01-20T06:59:15.159Z,99471.09
2023-01-20T07:01:58.217Z,99465.75
2023-01-20T07:04:46.892Z,99455.06
2023-01-20T07:07:35.864Z,99453.03
2023-01-20T07:10:25.922Z,99455.28
2023-01-20T07:13:14.883Z,99440.66
2023-01-20T07:16:35.002Z,99449.47
2023-01-20T07:19:30.845Z,99451.28
2023-01-20T07:22:19.227Z,99442.31
2023-01-20T07:25:00.889Z,99440.25
2023-01-20T07:27:49.865Z,99438.56
2023-01-20T07:30:33.417Z,99435.91
2023-01-20T07:33:21.849Z,99442.63
2023-01-20T07:36:04.180Z,99437.19
2023-01-20T07:38:56.905Z,99429.25
2023-01-20T07:41:39.160Z,99428.84
2023-01-20T07:44:30.982Z,99429.59
2023-01-20T07:47:13.144Z,99428.84
2023-01-20T07:50:58.829Z,99424.63
2023-01-20T07:53:48.178Z,99406.88
2023-01-20T07:56:43.960Z,99413.03
2023-01-20T07:59:33.067Z,99406.13
2023-01-20T08:02:17.978Z,99410.28
2023-01-20T08:05:00.179Z,99409.38
2023-01-20T08:07:48.835Z,99407.94
2023-01-20T08:10:38.345Z,99407.34
2023-01-20T08:13:19.952Z,99400.16
2023-01-20T08:16:07.000Z,99405.56
2023-01-20T08:18:56.899Z,99402.78
2023-01-20T08:21:39.555Z,99401.38
2023-01-20T08:24:28.789Z,99402.84
2023-01-20T08:27:17.142Z,99403.44
2023-01-20T08:30:01.844Z,99393.41
2023-01-20T08:32:50.204Z,99385.41
2023-01-20T08:35:32.883Z,99382.78
2023-01-20T08:38:21.133Z,99390.91
2023-01-20T08:41:03.865Z,99383.56
2023-01-20T08:43:52.143Z,99378.63
2023-01-20T08:46:34.902Z,99372.31
2023-01-20T08:49:18.626Z,99369.22
2023-01-20T08:52:07.842Z,99365.34
2023-01-20T08:54:54.558Z,99371.06
2023-01-20T08:57:43.918Z,99363.88
2023-01-20T09:00:33.075Z,99363.03
2023-01-20T09:03:14.682Z,99361.41
2023-01-20T09:05:57.323Z,99366.53
2023-01-20T09:08:45.841Z,99353.41
2023-01-20T09:11:34.942Z,99360.19
2023-01-20T09:14:17.127Z,99353.19
2023-01-20T09:17:05.815Z,99363.66
2023-01-20T09:19:48.255Z,99356.47
2023-01-20T09:22:36.761Z,99351.53
2023-01-20T09:25:19.532Z,99355.25
2023-01-20T09:28:09.835Z,99350.75
2023-01-20T09:30:52.263Z,99345.41
2023-01-20T09:33:43.727Z,99345.84
2023-01-20T09:36:28.643Z,99358.53
2023-01-20T09:39:36.976Z,99351.56
2023-01-20T09:42:46.520Z,99353.59
2023-01-20T09:45:45.889Z,99342.13
2023-01-20T09:49:11.443Z,99357.72
2023-01-20T09:52:41.843Z,99353.81
2023-01-20T09:55:28.074Z,99355.88
2023-01-20T09:58:22.931Z,99357.91
2023-01-20T10:01:36.600Z,99360.78
2023-01-20T10:04:38.890Z,99352.59
2023-01-20T10:07:29.492Z,99356.47
2023-01-20T10:10:35.001Z,99359.38
2023-01-20T10:13:41.842Z,99357.34
2023-01-20T10:16:41.828Z,99358.97
2023-01-20T10:19:55.933Z,99354.44
2023-01-20T10:22:45.146Z,99360.59
2023-01-20T10:25:41.879Z,99361.84
2023-01-20T10:28:40.896Z,99361.00
2023-01-20T10:31:36.201Z,99368.16
2023-01-20T10:34:24.862Z,99359.72
2023-01-20T10:37:18.855Z,99359.34
2023-01-20T10:40:27.225Z,99360.56
2023-01-20T10:43:23.840Z,99361.31
2023-01-20T10:46:23.169Z,99362.81
2023-01-20T10:49:47.918Z,99367.91
2023-01-20T10:52:49.344Z,99365.84
2023-01-20T10:56:07.150Z,99373.63
2023-01-20T10:59:04.766Z,99363.91
2023-01-20T11:01:59.386Z,99372.75
2023-01-20T11:04:55.815Z,99367.13
2023-01-20T11:07:45.180Z,99378.94
2023-01-20T11:10:35.870Z,99376.00
2023-01-20T11:13:18.789Z,99377.56
2023-01-20T11:16:25.891Z,99380.88
2023-01-20T11:19:08.789Z,99381.34
2023-01-20T11:21:57.795Z,99384.16
2023-01-20T11:24:47.016Z,99390.28
2023-01-20T11:27:38.768Z,99387.78
2023-01-20T11:30:43.831Z,99390.47
2023-01-20T11:33:36.142Z,99395.22
2023-01-20T11:36:31.729Z,99401.03
2023-01-20T11:39:38.817Z,99388.66
2023-01-20T11:42:36.723Z,99391.34
2023-01-20T11:45:39.897Z,99398.16
2023-01-20T11:48:22.675Z,99396.03
2023-01-20T11:51:16.805Z,99400.03
2023-01-20T11:54:20.180Z,99400.03
2023-01-20T11:57:18.896Z,99397.66
2023-01-20T12:00:07.026Z,99402.28
2023-01-20T12:02:49.781Z,99406.94
2023-01-20T12:05:56.581Z,99410.84
2023-01-20T12:09:25.877Z,99417.50
2023-01-20T12:12:35.852Z,99414.94
2023-01-20T12:15:26.320Z,99418.81
2023-01-20T12:18:53.348Z,99420.47
2023-01-20T12:21:55.829Z,99417.09
2023-01-20T12:25:16.846Z,99423.84
2023-01-20T12:28:07.225Z,99423.69
2023-01-20T12:31:07.120Z,99428.31
2023-01-20T12:33:53.282Z,99429.94
2023-01-20T12:37:17.750Z,99429.69
2023-01-20T12:40:06.068Z,99431.75
2023-01-20T12:43:21.807Z,99436.41
2023-01-20T12:46:22.231Z,99434.88
2023-01-20T12:49:16.809Z,99448.44
2023-01-20T12:51:59.284Z,99445.22
2023-01-20T12:54:50.790Z,99446.84
2023-01-20T12:57:51.973Z,99451.13
2023-01-20T13:01:17.097Z,99461.06
2023-01-20T13:04:19.748Z,99454.00
2023-01-20T13:07:20.830Z,99456.66
2023-01-20T13:10:55.797Z,99460.47
2023-01-20T13:13:59.290Z,99454.09
2023-01-20T13:17:23.827Z,99457.75
2023-01-20T13:20:17.146Z,99456.84
2023-01-20T13:23:11.845Z,99456.09
2023-01-20T13:25:55.253Z,99457.44
2023-01-20T13:28:43.845Z,99448.91
2023-01-20T13:31:47.871Z,99447.84
2023-01-20T13:34:38.684Z,99443.94
2023-01-20T13:37:51.859Z,99446.00
2023-01-20T13:40:40.112Z,99442.47
2023-01-20T13:43:36.837Z,99443.31
2023-01-20T13:46:19.368Z,99448.00
2023-01-20T13:49:36.141Z,99450.41
2023-01-20T13:52:44.487Z,99454.75
2023-01-20T13:56:05.854Z,99457.59
2023-01-20T13:59:01.793Z,99454.09
2023-01-20T14:01:50.798Z,99470.69
2023-01-20T14:04:40.831Z,99466.69
2023-01-20T14:07:25.767Z,99471.78
2023-01-20T14:10:15.969Z,99467.22
2023-01-20T14:12:58.367Z,99464.63
2023-01-20T14:15:50.926Z,99467.72
2023-01-20T14:18:39.867Z,99466.78
2023-01-20T14:21:35.111Z,99467.94
2023-01-20T14:24:35.814Z,99472.72
2023-01-20T14:27:35.794Z,99474.38
2023-01-20T14:30:28.804Z,99471.78
2023-01-20T14:33:22.779Z,99481.13
2023-01-20T14:36:08.903Z,99480.88
2023-01-20T14:39:04.812Z,99481.91
2023-01-20T14:41:52.967Z,99496.84
2023-01-20T14:44:46.027Z,99485.88
2023-01-20T14:47:28.886Z,99489.50
2023-01-20T14:50:18.179Z,99488.66
2023-01-20T14:53:06.834Z,99491.53
2023-01-20T14:55:59.783Z,99483.09
2023-01-20T14:59:02.640Z,99489.06
2023-01-20T15:01:51.807Z,99490.03
2023-01-20T15:04:34.118Z,99485.44
2023-01-20T15:07:29.848Z,99491.81
2023-01-20T15:10:21.754Z,99498.25
2023-01-20T15:13:10.826Z,99493.44
2023-01-20T15:15:53.233Z,99497.56
2023-01-20T15:18:44.811Z,99500.03
2023-01-20T15:21:42.787Z,99503.28
2023-01-20T15:24:40.939Z,99504.06
2023-01-20T15:27:36.774Z,99505.47
2023-01-20T15:30:35.828Z,99505.28
2023-01-20T15:33:18.321Z,99505.13
2023-01-20T15:36:08.835Z,99510.16
2023-01-20T15:38:58.698Z,99502.00
2023-01-20T15:41:40.941Z,99510.22
2023-01-20T15:44:31.849Z,99508.53
2023-01-20T15:47:36.727Z,99504.44
2023-01-20T15:50:32.591Z,99501.03
2023-01-20T15:53:21.729Z,99508.38
2023-01-20T15:56:04.120Z,99507.81
2023-01-20T15:58:52.784Z,99499.72
2023-01-20T16:01:36.022Z,99510.81
2023-01-20T16:04:26.781Z,99504.72
2023-01-20T16:07:08.968Z,99516.91
2023-01-20T16:09:57.743Z,99517.78
2023-01-20T16:12:40.231Z,99511.50
2023-01-20T16:15:28.843Z,99515.13
2023-01-20T16:18:12.093Z,99517.75
2023-01-20T16:21:00.801Z,99514.03
2023-01-20T16:23:43.059Z,99509.31
2023-01-20T16:26:36.807Z,99509.22
2023-01-20T16:29:19.036Z,99501.97
2023-01-20T16:32:07.820Z,99505.13
2023-01-20T16:34:50.553Z,99504.72
2023-01-20T16:37:39.768Z,99503.91
2023-01-20T16:40:32.736Z,99508.66
2023-01-20T16:43:15.136Z,99504.28
2023-01-20T16:46:06.811Z,99504.38
2023-01-20T16:48:49.758Z,99505.84
2023-01-20T16:51:38.807Z,99504.75
2023-01-20T16:54:22.103Z,99498.69
2023-01-20T16:57:10.725Z,99497.88
2023-01-20T17:00:05.679Z,99493.66
2023-01-20T17:03:00.792Z,99495.03
2023-01-20T17:05:43.152Z,99495.88
2023-01-20T17:08:31.799Z,99493.50
2023-01-20T17:11:13.974Z,99491.66
2023-01-20T17:14:03.759Z,99498.81
2023-01-20T17:16:47.169Z,99492.13
2023-01-20T17:19:35.891Z,99498.63
2023-01-20T17:22:18.604Z,99489.94
2023-01-20T17:25:07.813Z,99497.63
2023-01-20T17:27:50.107Z,99496.16
2023-01-20T17:30:38.799Z,99486.72
2023-01-20T17:33:27.892Z,99490.22
2023-01-20T17:36:18.109Z,99491.13
2023-01-20T17:38:59.781Z,99487.91
2023-01-20T17:41:48.092Z,99497.59
2023-01-20T17:44:30.607Z,99503.91
2023-01-20T17:47:20.635Z,99501.38
2023-01-20T17:50:03.127Z,99510.91
2023-01-20T17:52:51.717Z,99501.56
2023-01-20T17:55:34.092Z,99491.28
2023-01-20T17:58:28.711Z,99493.94
2023-01-20T18:01:16.742Z,99493.22
2023-01-20T18:04:08.725Z,99493.94
2023-01-20T18:06:58.015Z,99500.53
2023-01-20T18:09:42.933Z,99498.78
2023-01-20T18:12:31.110Z,99500.53
2023-01-20T18:15:13.699Z,99496.41
2023-01-20T18:18:02.757Z,99492.91
2023-01-20T18:20:45.652Z,99496.22
2023-01-20T18:23:34.813Z,99490.28
2023-01-20T18:26:19.446Z,99489.56
2023-01-20T18:29:12.870Z,99499.28
2023-01-20T18:31:55.595Z,99494.41
2023-01-20T18:34:44.805Z,99490.19
2023-01-20T18:37:33.906Z,99492.94
2023-01-20T18:40:23.026Z,99484.78
2023-01-20T18:43:05.680Z,99489.81
2023-01-20T18:45:48.348Z,99489.19
2023-01-20T18:48:36.783Z,99484.16
2023-01-20T18:51:28.187Z,99485.41
2023-01-20T18:54:13.814Z,99480.78
2023-01-20T18:56:56.817Z,99472.00
2023-01-20T18:59:49.963Z,99480.22
2023-01-20T19:02:32.189Z,99468.38
2023-01-20T19:05:21.701Z,99466.13
2023-01-20T19:08:10.883Z,99465.50
2023-01-20T19:10:53.278Z,99465.59
2023-01-20T19:13:41.842Z,99460.69
2023-01-20T19:16:26.624Z,99453.72
2023-01-20T19:19:15.707Z,99460.75
2023-01-20T19:21:59.176Z,99459.28
2023-01-20T19:24:47.861Z,99464.28
2023-01-20T19:27:30.247Z,99467.03
2023-01-20T19:30:19.705Z,99467.47
2023-01-20T19:33:02.165Z,99465.97
2023-01-20T19:35:50.720Z,99469.34
2023-01-20T19:38:34.021Z,99466.16
2023-01-20T19:41:25.776Z,99463.22
2023-01-20T19:44:10.073Z,99458.59
2023-01-20T19:46:58.832Z,99459.97
2023-01-20T19:49:41.376Z,99466.75
2023-01-20T19:52:30.687Z,99473.09
2023-01-20T19:55:13.614Z,99467.28
2023-01-20T19:58:02.786Z,99463.53
2023-01-20T20:00:57.638Z,99461.41
2023-01-20T20:03:46.680Z,99466.34
2023-01-20T20:06:40.260Z,99466.34
2023-01-20T20:09:30.782Z,99473.34
2023-01-20T20:12:13.243Z,99468.38
2023-01-20T20:15:02.753Z,99470.38
2023-01-20T20:17:45.261Z,99472.03
2023-01-20T20:20:33.739Z,99468.56
2023-01-20T20:23:16.092Z,99465.72
2023-01-20T20:26:04.715Z,99461.63
2023-01-20T20:28:47.027Z,99466.75
2023-01-20T20:31:38.808Z,99467.75
2023-01-20T20:34:23.986Z,99468.56
2023-01-20T20:37:12.701Z,99470.19
2023-01-20T20:39:55.017Z,99468.91
2023-01-20T20:42:43.780Z,99463.44
2023-01-20T20:45:26.839Z,99463.44
2023-01-20T20:48:17.664Z,99467.06
2023-01-20T20:51:00.241Z,99454.53
2023-01-20T20:53:49.749Z,99447.75
2023-01-20T20:56:33.034Z,99449.56
2023-01-20T20:59:21.705Z,99438.88
2023-01-20T21:02:04.168Z,99447.78
2023-01-20T21:04:53.656Z,99439.38
2023-01-20T21:07:35.958Z,99439.88
2023-01-20T21:10:24.722Z,99444.69
2023-01-20T21:13:15.755Z,99440.22
2023-01-20T21:16:14.862Z,99437.72
2023-01-20T21:18:58.701Z,99438.41
2023-01-20T21:21:47.737Z,99440.06
2023-01-20T21:24:31.036Z,99437.25
2023-01-20T21:27:19.694Z,99416.13
2023-01-20T21:30:08.714Z,99425.19
2023-01-20T21:32:57.022Z,99428.50
2023-01-20T21:35:40.119Z,99427.72
2023-01-20T21:38:24.648Z,99420.94
2023-01-20T21:41:21.774Z,99417.28
2023-01-20T21:44:28.146Z,99421.28
2023-01-20T21:47:18.661Z,99416.34
2023-01-20T21:50:19.153Z,99420.50
2023-01-20T21:53:07.695Z,99411.06
2023-01-20T21:55:50.045Z,99409.25
2023-01-20T21:58:38.728Z,99423.00
2023-01-20T22:01:20.885Z,99417.88
2023-01-20T22:04:09.691Z,99416.06
2023-01-20T22:06:58.059Z,99421.69
2023-01-20T22:09:39.832Z,99430.47
2023-01-20T22:12:21.830Z,99421.03
2023-01-20T22:15:12.643Z,99420.28
2023-01-20T22:18:01.712Z,99413.38
2023-01-20T22:20:44.076Z,99409.78
2023-01-20T22:23:32.672Z,99405.94
2023-01-20T22:26:15.022Z,99405.09
2023-01-20T22:29:03.671Z,99402.94
2023-01-20T22:31:46.042Z,99392.53
2023-01-20T22:34:34.733Z,99387.31
2023-01-20T22:37:16.969Z,99391.63
2023-01-20T22:40:05.699Z,99392.56
2023-01-20T22:42:47.943Z,99390.25
2023-01-20T22:45:36.786Z,99385.81
2023-01-20T22:48:19.037Z,99377.72
2023-01-20T22:51:19.775Z,99382.69
2023-01-20T22:54:10.819Z,99379.00
2023-01-20T22:56:59.672Z,99377.72
2023-01-20T22:59:54.555Z,99382.88
2023-01-20T23:02:46.666Z,99374.22
2023-01-20T23:05:28.983Z,99368.66
2023-01-20T23:08:17.720Z,99381.03
2023-01-20T23:11:07.927Z,99373.69
2023-01-20T23:13:56.715Z,99373.63
2023-01-20T23:16:39.018Z,99372.63
2023-01-20T23:19:27.733Z,99376.44
2023-01-20T23:22:09.967Z,99388.31
2023-01-20T23:24:58.652Z,99393.13
2023-01-20T23:27:40.943Z,99394.47
2023-01-20T23:30:29.639Z,99389.47
2023-01-20T23:33:19.682Z,99393.56
2023-01-20T23:36:25.784Z,99388.25
2023-01-20T23:39:14.685Z,99394.00
2023-01-20T23:42:04.723Z,99384.59
2023-01-20T23:44:47.030Z,99381.34
2023-01-20T23:47:35.727Z,99386.91
2023-01-20T23:50:25.628Z,99388.78
2023-01-20T23:53:14.004Z,99406.84
2023-01-20T23:55:56.683Z,99412.00
2023-01-20T23:58:51.604Z,99406.44
